sensor_id;sensor_type;location;lat;lon;timestamp;temperature;humidity
9881;DHT22;4979;51.014;6.678;2022-08-26T00:01:11;23.40;99.90
9881;DHT22;4979;51.014;6.678;2022-08-26T00:03:36;23.40;99.90
9881;DHT22;4979;51.014;6.678;2022-08-26T00:06:04;23.40;99.90
9881;DHT22;4979;51.014;6.678;2022-08-26T00:08:29;23.40;99.90
9881;DHT22;4979;51.014;6.678;2022-08-26T00:10:55;23.40;99.90
9881;DHT22;4979;51.014;6.678;2022-08-26T00:13:21;23.40;99.90
9881;DHT22;4979;51.014;6.678;2022-08-26T00:15:46;23.40;99.90
9881;DHT22;4979;51.014;6.678;2022-08-26T00:18:13;23.20;99.90
9881;DHT22;4979;51.014;6.678;2022-08-26T00:20:38;23.20;99.90
9881;DHT22;4979;51.014;6.678;2022-08-26T00:23:04;23.10;99.90
9881;DHT22;4979;51.014;6.678;2022-08-26T00:25:31;23.00;99.90
9881;DHT22;4979;51.014;6.678;2022-08-26T00:27:56;23.10;99.90
9881;DHT22;4979;51.014;6.678;2022-08-26T00:30:25;23.00;99.90
9881;DHT22;4979;51.014;6.678;2022-08-26T00:32:52;23.00;99.90
9881;DHT22;4979;51.014;6.678;2022-08-26T00:35:17;22.90;99.90
9881;DHT22;4979;51.014;6.678;2022-08-26T00:37:44;22.90;99.90
9881;DHT22;4979;51.014;6.678;2022-08-26T00:40:14;22.90;99.90
9881;DHT22;4979;51.014;6.678;2022-08-26T00:42:40;22.80;99.90
9881;DHT22;4979;51.014;6.678;2022-08-26T00:45:07;22.90;99.90
9881;DHT22;4979;51.014;6.678;2022-08-26T00:47:36;22.80;99.90
9881;DHT22;4979;51.014;6.678;2022-08-26T00:50:06;22.80;99.90
9881;DHT22;4979;51.014;6.678;2022-08-26T00:52:35;22.80;99.90
9881;DHT22;4979;51.014;6.678;2022-08-26T00:55:17;22.80;99.90
9881;DHT22;4979;51.014;6.678;2022-08-26T00:57:44;22.70;99.90
9881;DHT22;4979;51.014;6.678;2022-08-26T01:00:16;22.70;99.90
9881;DHT22;4979;51.014;6.678;2022-08-26T01:02:42;22.70;99.90
9881;DHT22;4979;51.014;6.678;2022-08-26T01:05:10;22.70;99.90
9881;DHT22;4979;51.014;6.678;2022-08-26T01:07:36;22.60;99.90
9881;DHT22;4979;51.014;6.678;2022-08-26T01:10:06;22.70;99.90
9881;DHT22;4979;51.014;6.678;2022-08-26T01:12:38;22.70;99.90
9881;DHT22;4979;51.014;6.678;2022-08-26T01:15:06;22.60;99.90
9881;DHT22;4979;51.014;6.678;2022-08-26T01:17:32;22.60;99.90
9881;DHT22;4979;51.014;6.678;2022-08-26T01:23:02;22.60;99.90
9881;DHT22;4979;51.014;6.678;2022-08-26T01:25:30;22.60;99.90
9881;DHT22;4979;51.014;6.678;2022-08-26T01:28:00;22.60;99.90
9881;DHT22;4979;51.014;6.678;2022-08-26T01:30:27;22.60;99.90
9881;DHT22;4979;51.014;6.678;2022-08-26T01:32:56;22.50;99.90
9881;DHT22;4979;51.014;6.678;2022-08-26T01:35:22;22.50;99.90
9881;DHT22;4979;51.014;6.678;2022-08-26T01:37:52;22.40;99.90
9881;DHT22;4979;51.014;6.678;2022-08-26T01:40:24;22.50;99.90
9881;DHT22;4979;51.014;6.678;2022-08-26T01:42:52;22.40;99.90
9881;DHT22;4979;51.014;6.678;2022-08-26T01:45:21;22.50;99.90
9881;DHT22;4979;51.014;6.678;2022-08-26T01:47:50;22.50;99.90
9881;DHT22;4979;51.014;6.678;2022-08-26T01:50:20;22.30;99.90
9881;DHT22;4979;51.014;6.678;2022-08-26T01:52:47;22.40;99.90
9881;DHT22;4979;51.014;6.678;2022-08-26T01:55:14;22.30;99.90
9881;DHT22;4979;51.014;6.678;2022-08-26T01:57:43;22.20;99.90
9881;DHT22;4979;51.014;6.678;2022-08-26T02:00:11;22.20;99.90
9881;DHT22;4979;51.014;6.678;2022-08-26T02:02:45;22.20;99.90
9881;DHT22;4979;51.014;6.678;2022-08-26T02:05:17;22.20;99.90
9881;DHT22;4979;51.014;6.678;2022-08-26T02:07:43;22.20;99.90
9881;DHT22;4979;51.014;6.678;2022-08-26T02:10:10;22.20;99.90
9881;DHT22;4979;51.014;6.678;2022-08-26T02:12:37;22.10;99.90
9881;DHT22;4979;51.014;6.678;2022-08-26T02:15:05;22.20;99.90
9881;DHT22;4979;51.014;6.678;2022-08-26T02:17:42;22.10;99.90
9881;DHT22;4979;51.014;6.678;2022-08-26T02:20:11;22.10;99.90
9881;DHT22;4979;51.014;6.678;2022-08-26T02:22:39;22.10;99.90
9881;DHT22;4979;51.014;6.678;2022-08-26T02:25:28;22.10;99.90
9881;DHT22;4979;51.014;6.678;2022-08-26T02:27:55;22.10;99.90
9881;DHT22;4979;51.014;6.678;2022-08-26T02:30:27;22.00;99.90
9881;DHT22;4979;51.014;6.678;2022-08-26T02:32:53;22.10;99.90
9881;DHT22;4979;51.014;6.678;2022-08-26T02:35:21;21.90;99.90
9881;DHT22;4979;51.014;6.678;2022-08-26T02:37:48;22.10;99.90
9881;DHT22;4979;51.014;6.678;2022-08-26T02:40:16;22.00;99.90
9881;DHT22;4979;51.014;6.678;2022-08-26T02:42:42;22.00;99.90
9881;DHT22;4979;51.014;6.678;2022-08-26T02:45:08;22.00;99.90
9881;DHT22;4979;51.014;6.678;2022-08-26T02:47:35;22.10;99.90
9881;DHT22;4979;51.014;6.678;2022-08-26T02:50:02;22.00;99.90
9881;DHT22;4979;51.014;6.678;2022-08-26T02:52:28;22.00;99.90
9881;DHT22;4979;51.014;6.678;2022-08-26T02:54:54;21.80;99.90
9881;DHT22;4979;51.014;6.678;2022-08-26T02:57:19;22.00;99.90
9881;DHT22;4979;51.014;6.678;2022-08-26T02:59:45;21.90;99.90
9881;DHT22;4979;51.014;6.678;2022-08-26T03:02:11;22.00;99.90
9881;DHT22;4979;51.014;6.678;2022-08-26T03:04:38;21.90;99.90
9881;DHT22;4979;51.014;6.678;2022-08-26T03:07:05;21.90;99.90
9881;DHT22;4979;51.014;6.678;2022-08-26T03:09:31;21.90;99.90
9881;DHT22;4979;51.014;6.678;2022-08-26T03:11:57;22.00;99.90
9881;DHT22;4979;51.014;6.678;2022-08-26T03:14:24;21.90;99.90
9881;DHT22;4979;51.014;6.678;2022-08-26T03:16:50;21.90;99.90
9881;DHT22;4979;51.014;6.678;2022-08-26T03:19:17;22.00;99.90
9881;DHT22;4979;51.014;6.678;2022-08-26T03:21:43;22.10;99.90
9881;DHT22;4979;51.014;6.678;2022-08-26T03:24:10;22.00;99.90
9881;DHT22;4979;51.014;6.678;2022-08-26T03:26:35;22.10;99.90
9881;DHT22;4979;51.014;6.678;2022-08-26T03:29:01;22.10;99.90
9881;DHT22;4979;51.014;6.678;2022-08-26T03:31:45;22.00;99.90
9881;DHT22;4979;51.014;6.678;2022-08-26T03:34:11;22.10;99.90
9881;DHT22;4979;51.014;6.678;2022-08-26T03:36:37;22.00;99.90
9881;DHT22;4979;51.014;6.678;2022-08-26T03:39:03;22.00;99.90
9881;DHT22;4979;51.014;6.678;2022-08-26T03:41:29;22.00;99.90
9881;DHT22;4979;51.014;6.678;2022-08-26T03:43:57;22.00;99.90
9881;DHT22;4979;51.014;6.678;2022-08-26T03:46:22;22.00;99.90
9881;DHT22;4979;51.014;6.678;2022-08-26T03:48:48;21.90;99.90
9881;DHT22;4979;51.014;6.678;2022-08-26T03:51:17;21.90;99.90
9881;DHT22;4979;51.014;6.678;2022-08-26T03:53:43;21.90;99.90
9881;DHT22;4979;51.014;6.678;2022-08-26T03:56:09;21.90;99.90
9881;DHT22;4979;51.014;6.678;2022-08-26T03:58:35;21.90;99.90
9881;DHT22;4979;51.014;6.678;2022-08-26T04:01:01;21.80;99.90
9881;DHT22;4979;51.014;6.678;2022-08-26T04:03:27;21.90;99.90
9881;DHT22;4979;51.014;6.678;2022-08-26T04:06:11;21.90;99.90
9881;DHT22;4979;51.014;6.678;2022-08-26T04:08:37;21.90;99.90
9881;DHT22;4979;51.014;6.678;2022-08-26T04:11:04;21.90;99.90
9881;DHT22;4979;51.014;6.678;2022-08-26T04:13:30;21.90;99.90
9881;DHT22;4979;51.014;6.678;2022-08-26T04:15:56;21.90;99.90
9881;DHT22;4979;51.014;6.678;2022-08-26T04:18:22;21.90;99.90
9881;DHT22;4979;51.014;6.678;2022-08-26T04:20:47;21.90;99.90
9881;DHT22;4979;51.014;6.678;2022-08-26T04:23:13;21.80;99.90
9881;DHT22;4979;51.014;6.678;2022-08-26T04:25:41;21.80;99.90
9881;DHT22;4979;51.014;6.678;2022-08-26T04:28:06;21.80;99.90
9881;DHT22;4979;51.014;6.678;2022-08-26T04:30:36;21.80;99.90
9881;DHT22;4979;51.014;6.678;2022-08-26T04:33:02;21.80;99.90
9881;DHT22;4979;51.014;6.678;2022-08-26T04:35:29;21.80;99.90
9881;DHT22;4979;51.014;6.678;2022-08-26T04:37:55;21.80;99.90
9881;DHT22;4979;51.014;6.678;2022-08-26T04:40:21;21.80;99.90
9881;DHT22;4979;51.014;6.678;2022-08-26T04:42:46;21.80;99.90
9881;DHT22;4979;51.014;6.678;2022-08-26T04:45:12;21.80;99.90
9881;DHT22;4979;51.014;6.678;2022-08-26T04:47:38;21.80;99.90
9881;DHT22;4979;51.014;6.678;2022-08-26T04:50:05;21.80;99.90
9881;DHT22;4979;51.014;6.678;2022-08-26T04:52:31;21.80;99.90
9881;DHT22;4979;51.014;6.678;2022-08-26T04:54:56;21.80;99.90
9881;DHT22;4979;51.014;6.678;2022-08-26T04:57:22;21.90;99.90
9881;DHT22;4979;51.014;6.678;2022-08-26T04:59:48;21.90;99.90
9881;DHT22;4979;51.014;6.678;2022-08-26T05:02:13;22.00;99.90
9881;DHT22;4979;51.014;6.678;2022-08-26T05:04:39;21.90;99.90
9881;DHT22;4979;51.014;6.678;2022-08-26T05:07:08;21.90;99.90
9881;DHT22;4979;51.014;6.678;2022-08-26T05:09:35;21.80;99.90
9881;DHT22;4979;51.014;6.678;2022-08-26T05:12:01;21.80;99.90
9881;DHT22;4979;51.014;6.678;2022-08-26T05:14:27;21.80;99.90
9881;DHT22;4979;51.014;6.678;2022-08-26T05:16:52;21.90;99.90
9881;DHT22;4979;51.014;6.678;2022-08-26T05:19:18;21.90;99.90
9881;DHT22;4979;51.014;6.678;2022-08-26T05:21:44;21.90;99.90
9881;DHT22;4979;51.014;6.678;2022-08-26T05:24:11;21.90;99.90
9881;DHT22;4979;51.014;6.678;2022-08-26T05:26:36;21.90;99.90
9881;DHT22;4979;51.014;6.678;2022-08-26T05:29:02;21.90;99.90
9881;DHT22;4979;51.014;6.678;2022-08-26T05:31:29;21.90;99.90
9881;DHT22;4979;51.014;6.678;2022-08-26T05:33:56;21.90;99.90
9881;DHT22;4979;51.014;6.678;2022-08-26T05:36:25;21.90;99.90
9881;DHT22;4979;51.014;6.678;2022-08-26T05:38:51;22.00;99.90
9881;DHT22;4979;51.014;6.678;2022-08-26T05:41:21;22.00;99.90
9881;DHT22;4979;51.014;6.678;2022-08-26T05:43:49;22.10;99.90
9881;DHT22;4979;51.014;6.678;2022-08-26T05:46:15;22.10;99.90
9881;DHT22;4979;51.014;6.678;2022-08-26T05:48:41;22.10;99.90
9881;DHT22;4979;51.014;6.678;2022-08-26T05:51:09;22.10;99.90
9881;DHT22;4979;51.014;6.678;2022-08-26T05:53:35;22.20;99.90
9881;DHT22;4979;51.014;6.678;2022-08-26T05:56:03;22.20;99.90
9881;DHT22;4979;51.014;6.678;2022-08-26T05:58:29;22.10;99.90
9881;DHT22;4979;51.014;6.678;2022-08-26T06:01:13;22.20;99.90
9881;DHT22;4979;51.014;6.678;2022-08-26T06:03:43;22.10;99.90
9881;DHT22;4979;51.014;6.678;2022-08-26T06:06:19;22.20;99.90
9881;DHT22;4979;51.014;6.678;2022-08-26T06:08:45;22.20;99.90
9881;DHT22;4979;51.014;6.678;2022-08-26T06:11:13;22.20;99.90
9881;DHT22;4979;51.014;6.678;2022-08-26T06:13:39;22.30;99.90
9881;DHT22;4979;51.014;6.678;2022-08-26T06:16:08;22.30;99.90
9881;DHT22;4979;51.014;6.678;2022-08-26T06:18:37;22.40;99.90
9881;DHT22;4979;51.014;6.678;2022-08-26T06:21:15;22.50;99.90
9881;DHT22;4979;51.014;6.678;2022-08-26T06:23:42;22.50;99.90
9881;DHT22;4979;51.014;6.678;2022-08-26T06:26:27;22.50;99.90
9881;DHT22;4979;51.014;6.678;2022-08-26T06:28:53;22.40;99.90
9881;DHT22;4979;51.014;6.678;2022-08-26T06:31:20;22.60;99.90
9881;DHT22;4979;51.014;6.678;2022-08-26T06:33:46;22.50;99.90
9881;DHT22;4979;51.014;6.678;2022-08-26T06:36:17;22.60;99.90
9881;DHT22;4979;51.014;6.678;2022-08-26T06:38:44;22.60;99.90
9881;DHT22;4979;51.014;6.678;2022-08-26T06:41:10;22.60;99.90
9881;DHT22;4979;51.014;6.678;2022-08-26T06:43:36;22.50;99.90
9881;DHT22;4979;51.014;6.678;2022-08-26T06:46:06;22.60;99.90
9881;DHT22;4979;51.014;6.678;2022-08-26T06:48:32;22.50;99.90
9881;DHT22;4979;51.014;6.678;2022-08-26T06:51:20;22.60;99.90
9881;DHT22;4979;51.014;6.678;2022-08-26T06:53:47;22.60;99.90
9881;DHT22;4979;51.014;6.678;2022-08-26T06:56:16;22.50;99.90
9881;DHT22;4979;51.014;6.678;2022-08-26T06:58:42;22.40;99.90
9881;DHT22;4979;51.014;6.678;2022-08-26T07:01:25;22.40;99.90
9881;DHT22;4979;51.014;6.678;2022-08-26T07:03:53;22.30;99.90
9881;DHT22;4979;51.014;6.678;2022-08-26T07:06:19;22.30;99.90
9881;DHT22;4979;51.014;6.678;2022-08-26T07:08:46;22.30;99.90
9881;DHT22;4979;51.014;6.678;2022-08-26T07:11:12;22.30;99.90
9881;DHT22;4979;51.014;6.678;2022-08-26T07:13:37;22.20;99.90
9881;DHT22;4979;51.014;6.678;2022-08-26T07:16:08;22.30;99.90
9881;DHT22;4979;51.014;6.678;2022-08-26T07:18:37;22.40;99.90
9881;DHT22;4979;51.014;6.678;2022-08-26T07:21:06;22.30;99.90
9881;DHT22;4979;51.014;6.678;2022-08-26T07:23:33;22.30;99.90
9881;DHT22;4979;51.014;6.678;2022-08-26T07:26:07;22.30;99.90
9881;DHT22;4979;51.014;6.678;2022-08-26T07:28:33;22.40;99.90
9881;DHT22;4979;51.014;6.678;2022-08-26T07:31:07;22.40;99.90
9881;DHT22;4979;51.014;6.678;2022-08-26T07:33:34;22.30;99.90
9881;DHT22;4979;51.014;6.678;2022-08-26T07:36:00;22.30;99.90
9881;DHT22;4979;51.014;6.678;2022-08-26T07:38:26;22.30;99.90
9881;DHT22;4979;51.014;6.678;2022-08-26T07:40:51;22.40;99.90
9881;DHT22;4979;51.014;6.678;2022-08-26T07:43:17;22.40;99.90
9881;DHT22;4979;51.014;6.678;2022-08-26T07:45:43;22.30;99.90
9881;DHT22;4979;51.014;6.678;2022-08-26T07:48:08;22.30;99.90
9881;DHT22;4979;51.014;6.678;2022-08-26T07:50:34;22.40;99.90
9881;DHT22;4979;51.014;6.678;2022-08-26T07:53:01;22.30;99.90
9881;DHT22;4979;51.014;6.678;2022-08-26T07:55:27;22.30;99.90
9881;DHT22;4979;51.014;6.678;2022-08-26T07:57:53;22.40;99.90
9881;DHT22;4979;51.014;6.678;2022-08-26T08:00:18;22.40;99.90
9881;DHT22;4979;51.014;6.678;2022-08-26T08:02:44;22.40;99.90
9881;DHT22;4979;51.014;6.678;2022-08-26T08:05:12;22.40;99.90
9881;DHT22;4979;51.014;6.678;2022-08-26T08:07:39;22.40;99.90
9881;DHT22;4979;51.014;6.678;2022-08-26T08:10:06;22.50;99.90
9881;DHT22;4979;51.014;6.678;2022-08-26T08:12:32;22.40;99.90
9881;DHT22;4979;51.014;6.678;2022-08-26T08:14:57;22.50;99.90
9881;DHT22;4979;51.014;6.678;2022-08-26T08:17:23;22.50;99.90
9881;DHT22;4979;51.014;6.678;2022-08-26T08:19:48;22.60;99.90
9881;DHT22;4979;51.014;6.678;2022-08-26T08:22:15;22.50;99.90
9881;DHT22;4979;51.014;6.678;2022-08-26T08:24:41;22.50;99.90
9881;DHT22;4979;51.014;6.678;2022-08-26T08:27:07;22.50;99.90
9881;DHT22;4979;51.014;6.678;2022-08-26T08:29:35;22.50;99.90
9881;DHT22;4979;51.014;6.678;2022-08-26T08:32:01;22.60;99.90
9881;DHT22;4979;51.014;6.678;2022-08-26T08:34:28;22.60;99.90
9881;DHT22;4979;51.014;6.678;2022-08-26T08:36:54;22.70;99.90
9881;DHT22;4979;51.014;6.678;2022-08-26T08:39:20;22.70;99.90
9881;DHT22;4979;51.014;6.678;2022-08-26T08:44:39;22.70;99.90
9881;DHT22;4979;51.014;6.678;2022-08-26T08:47:19;22.70;99.90
9881;DHT22;4979;51.014;6.678;2022-08-26T08:49:51;22.80;99.90
9881;DHT22;4979;51.014;6.678;2022-08-26T08:54:52;22.90;99.90
9881;DHT22;4979;51.014;6.678;2022-08-26T08:57:30;22.90;99.90
9881;DHT22;4979;51.014;6.678;2022-08-26T09:00:05;23.00;99.90
9881;DHT22;4979;51.014;6.678;2022-08-26T09:02:37;22.90;99.90
9881;DHT22;4979;51.014;6.678;2022-08-26T09:05:25;23.00;99.90
9881;DHT22;4979;51.014;6.678;2022-08-26T09:08:07;23.00;99.90
9881;DHT22;4979;51.014;6.678;2022-08-26T09:10:43;23.00;99.90
9881;DHT22;4979;51.014;6.678;2022-08-26T09:13:12;23.10;99.90
9881;DHT22;4979;51.014;6.678;2022-08-26T09:16:45;23.00;99.90
9881;DHT22;4979;51.014;6.678;2022-08-26T09:19:12;23.00;99.90
9881;DHT22;4979;51.014;6.678;2022-08-26T09:21:40;23.00;99.90
9881;DHT22;4979;51.014;6.678;2022-08-26T09:24:06;23.00;99.90
9881;DHT22;4979;51.014;6.678;2022-08-26T09:29:06;23.00;99.90
9881;DHT22;4979;51.014;6.678;2022-08-26T09:31:37;23.00;99.90
9881;DHT22;4979;51.014;6.678;2022-08-26T09:34:19;23.00;99.90
9881;DHT22;4979;51.014;6.678;2022-08-26T09:36:57;23.00;99.90
9881;DHT22;4979;51.014;6.678;2022-08-26T09:42:22;23.00;99.90
9881;DHT22;4979;51.014;6.678;2022-08-26T09:44:57;23.00;99.90
9881;DHT22;4979;51.014;6.678;2022-08-26T09:53:21;23.30;99.90
9881;DHT22;4979;51.014;6.678;2022-08-26T09:55:50;23.20;99.90
9881;DHT22;4979;51.014;6.678;2022-08-26T09:58:38;23.20;99.90
9881;DHT22;4979;51.014;6.678;2022-08-26T10:03:42;23.30;99.90
9881;DHT22;4979;51.014;6.678;2022-08-26T10:08:48;23.40;99.90
9881;DHT22;4979;51.014;6.678;2022-08-26T10:11:23;23.40;99.90
9881;DHT22;4979;51.014;6.678;2022-08-26T10:14:07;23.40;99.90
9881;DHT22;4979;51.014;6.678;2022-08-26T10:16:51;23.60;99.90
9881;DHT22;4979;51.014;6.678;2022-08-26T10:19:22;23.60;99.90
9881;DHT22;4979;51.014;6.678;2022-08-26T10:22:11;23.60;99.90
9881;DHT22;4979;51.014;6.678;2022-08-26T10:24:45;23.70;99.90
9881;DHT22;4979;51.014;6.678;2022-08-26T10:27:31;23.70;99.90
9881;DHT22;4979;51.014;6.678;2022-08-26T10:30:05;23.70;99.90
9881;DHT22;4979;51.014;6.678;2022-08-26T10:32:33;23.80;99.90
9881;DHT22;4979;51.014;6.678;2022-08-26T10:35:01;23.90;99.90
9881;DHT22;4979;51.014;6.678;2022-08-26T10:37:35;23.90;99.90
9881;DHT22;4979;51.014;6.678;2022-08-26T10:40:13;23.90;99.90
9881;DHT22;4979;51.014;6.678;2022-08-26T10:43:07;23.90;99.90
9881;DHT22;4979;51.014;6.678;2022-08-26T10:45:38;23.90;99.90
9881;DHT22;4979;51.014;6.678;2022-08-26T10:48:11;24.00;99.90
9881;DHT22;4979;51.014;6.678;2022-08-26T10:50:41;24.00;99.90
9881;DHT22;4979;51.014;6.678;2022-08-26T10:53:21;24.10;99.90
9881;DHT22;4979;51.014;6.678;2022-08-26T11:01:52;24.10;99.90
9881;DHT22;4979;51.014;6.678;2022-08-26T11:04:45;24.10;99.90
9881;DHT22;4979;51.014;6.678;2022-08-26T11:15:11;23.90;99.90
9881;DHT22;4979;51.014;6.678;2022-08-26T11:20:43;23.90;99.90
9881;DHT22;4979;51.014;6.678;2022-08-26T11:28:42;24.00;99.90
9881;DHT22;4979;51.014;6.678;2022-08-26T11:33:58;24.00;99.90
9881;DHT22;4979;51.014;6.678;2022-08-26T11:39:12;23.90;99.90
9881;DHT22;4979;51.014;6.678;2022-08-26T11:41:42;23.90;99.90
9881;DHT22;4979;51.014;6.678;2022-08-26T11:44:09;24.00;99.90
9881;DHT22;4979;51.014;6.678;2022-08-26T11:46:35;24.00;99.90
9881;DHT22;4979;51.014;6.678;2022-08-26T11:49:06;24.10;99.90
9881;DHT22;4979;51.014;6.678;2022-08-26T11:51:33;24.10;99.90
9881;DHT22;4979;51.014;6.678;2022-08-26T11:54:17;24.10;99.90
9881;DHT22;4979;51.014;6.678;2022-08-26T11:56:46;24.00;99.90
9881;DHT22;4979;51.014;6.678;2022-08-26T11:59:16;24.00;99.90
9881;DHT22;4979;51.014;6.678;2022-08-26T12:01:46;24.00;99.90
9881;DHT22;4979;51.014;6.678;2022-08-26T12:04:26;23.90;99.90
9881;DHT22;4979;51.014;6.678;2022-08-26T12:06:53;23.90;99.90
9881;DHT22;4979;51.014;6.678;2022-08-26T12:09:30;23.80;99.90
9881;DHT22;4979;51.014;6.678;2022-08-26T12:12:30;23.70;99.90
9881;DHT22;4979;51.014;6.678;2022-08-26T12:15:17;23.80;99.90
9881;DHT22;4979;51.014;6.678;2022-08-26T12:17:45;23.80;99.90
9881;DHT22;4979;51.014;6.678;2022-08-26T12:20:33;23.80;99.90
9881;DHT22;4979;51.014;6.678;2022-08-26T12:29:04;23.60;99.90
9881;DHT22;4979;51.014;6.678;2022-08-26T12:31:41;23.60;99.90
9881;DHT22;4979;51.014;6.678;2022-08-26T12:34:13;23.50;99.90
9881;DHT22;4979;51.014;6.678;2022-08-26T12:36:54;23.50;99.90
9881;DHT22;4979;51.014;6.678;2022-08-26T12:39:31;23.50;99.90
9881;DHT22;4979;51.014;6.678;2022-08-26T12:45:01;23.50;99.90
9881;DHT22;4979;51.014;6.678;2022-08-26T12:47:32;23.40;99.90
9881;DHT22;4979;51.014;6.678;2022-08-26T12:50:08;23.40;99.90
9881;DHT22;4979;51.014;6.678;2022-08-26T12:52:42;23.40;99.90
9881;DHT22;4979;51.014;6.678;2022-08-26T12:56:01;23.50;99.90
9881;DHT22;4979;51.014;6.678;2022-08-26T13:00:48;23.70;99.90
9881;DHT22;4979;51.014;6.678;2022-08-26T13:08:53;23.80;99.90
9881;DHT22;4979;51.014;6.678;2022-08-26T13:11:23;23.80;99.90
9881;DHT22;4979;51.014;6.678;2022-08-26T13:13:53;23.90;99.90
9881;DHT22;4979;51.014;6.678;2022-08-26T13:16:20;23.90;99.90
9881;DHT22;4979;51.014;6.678;2022-08-26T13:18:47;23.90;99.90
9881;DHT22;4979;51.014;6.678;2022-08-26T13:21:17;23.90;99.90
9881;DHT22;4979;51.014;6.678;2022-08-26T13:23:43;23.90;99.90
9881;DHT22;4979;51.014;6.678;2022-08-26T13:26:10;23.80;99.90
9881;DHT22;4979;51.014;6.678;2022-08-26T13:28:35;23.90;99.90
9881;DHT22;4979;51.014;6.678;2022-08-26T13:31:02;23.80;99.90
9881;DHT22;4979;51.014;6.678;2022-08-26T13:33:29;23.70;99.90
9881;DHT22;4979;51.014;6.678;2022-08-26T13:35:55;23.70;99.90
9881;DHT22;4979;51.014;6.678;2022-08-26T13:38:21;23.70;99.90
9881;DHT22;4979;51.014;6.678;2022-08-26T13:40:47;23.60;99.90
9881;DHT22;4979;51.014;6.678;2022-08-26T13:43:12;23.50;99.90
9881;DHT22;4979;51.014;6.678;2022-08-26T13:45:38;23.40;99.90
9881;DHT22;4979;51.014;6.678;2022-08-26T13:48:05;23.40;99.90
9881;DHT22;4979;51.014;6.678;2022-08-26T13:50:32;23.40;99.90
9881;DHT22;4979;51.014;6.678;2022-08-26T13:52:58;23.40;99.90
9881;DHT22;4979;51.014;6.678;2022-08-26T13:55:24;23.40;99.90
9881;DHT22;4979;51.014;6.678;2022-08-26T13:57:49;23.40;99.90
9881;DHT22;4979;51.014;6.678;2022-08-26T14:00:15;23.50;99.90
9881;DHT22;4979;51.014;6.678;2022-08-26T14:02:41;23.60;99.90
9881;DHT22;4979;51.014;6.678;2022-08-26T14:05:07;23.60;99.90
9881;DHT22;4979;51.014;6.678;2022-08-26T14:07:33;23.70;99.90
9881;DHT22;4979;51.014;6.678;2022-08-26T14:09:58;23.80;99.90
9881;DHT22;4979;51.014;6.678;2022-08-26T14:12:24;23.80;99.90
9881;DHT22;4979;51.014;6.678;2022-08-26T14:14:49;24.10;99.90
9881;DHT22;4979;51.014;6.678;2022-08-26T14:17:18;24.30;99.90
9881;DHT22;4979;51.014;6.678;2022-08-26T14:19:45;24.30;99.90
9881;DHT22;4979;51.014;6.678;2022-08-26T14:22:14;24.60;99.90
9881;DHT22;4979;51.014;6.678;2022-08-26T14:24:41;24.70;99.90
9881;DHT22;4979;51.014;6.678;2022-08-26T14:27:06;24.70;99.90
9881;DHT22;4979;51.014;6.678;2022-08-26T14:29:32;24.70;99.90
9881;DHT22;4979;51.014;6.678;2022-08-26T14:32:01;24.80;99.90
9881;DHT22;4979;51.014;6.678;2022-08-26T14:34:31;24.60;99.90
9881;DHT22;4979;51.014;6.678;2022-08-26T14:36:57;24.80;99.90
9881;DHT22;4979;51.014;6.678;2022-08-26T14:39:22;24.90;99.90
9881;DHT22;4979;51.014;6.678;2022-08-26T14:41:51;24.90;99.90
9881;DHT22;4979;51.014;6.678;2022-08-26T14:44:16;24.90;99.90
9881;DHT22;4979;51.014;6.678;2022-08-26T14:46:46;24.80;99.90
9881;DHT22;4979;51.014;6.678;2022-08-26T14:49:13;24.90;99.90
9881;DHT22;4979;51.014;6.678;2022-08-26T14:51:39;25.00;99.90
9881;DHT22;4979;51.014;6.678;2022-08-26T14:54:07;25.10;99.90
9881;DHT22;4979;51.014;6.678;2022-08-26T14:59:11;25.10;99.90
9881;DHT22;4979;51.014;6.678;2022-08-26T15:01:36;25.00;99.90
9881;DHT22;4979;51.014;6.678;2022-08-26T15:04:02;25.10;99.90
9881;DHT22;4979;51.014;6.678;2022-08-26T15:06:29;25.10;99.90
9881;DHT22;4979;51.014;6.678;2022-08-26T15:08:55;25.20;99.90
9881;DHT22;4979;51.014;6.678;2022-08-26T15:11:21;25.20;99.90
9881;DHT22;4979;51.014;6.678;2022-08-26T15:13:46;25.20;99.90
9881;DHT22;4979;51.014;6.678;2022-08-26T15:16:13;25.30;99.90
9881;DHT22;4979;51.014;6.678;2022-08-26T15:18:38;25.20;99.90
9881;DHT22;4979;51.014;6.678;2022-08-26T15:21:05;25.20;99.90
9881;DHT22;4979;51.014;6.678;2022-08-26T15:23:32;25.00;99.90
9881;DHT22;4979;51.014;6.678;2022-08-26T15:25:58;25.00;99.90
9881;DHT22;4979;51.014;6.678;2022-08-26T15:28:23;24.90;99.90
9881;DHT22;4979;51.014;6.678;2022-08-26T15:30:49;24.90;99.90
9881;DHT22;4979;51.014;6.678;2022-08-26T15:33:15;24.80;99.90
9881;DHT22;4979;51.014;6.678;2022-08-26T15:35:41;24.50;99.90
9881;DHT22;4979;51.014;6.678;2022-08-26T15:38:07;24.50;99.90
9881;DHT22;4979;51.014;6.678;2022-08-26T15:40:32;23.70;99.90
9881;DHT22;4979;51.014;6.678;2022-08-26T15:42:58;24.40;99.90
9881;DHT22;4979;51.014;6.678;2022-08-26T15:45:23;24.20;99.90
9881;DHT22;4979;51.014;6.678;2022-08-26T15:47:49;24.10;99.90
9881;DHT22;4979;51.014;6.678;2022-08-26T15:50:15;24.00;99.90
9881;DHT22;4979;51.014;6.678;2022-08-26T15:52:40;24.00;99.90
9881;DHT22;4979;51.014;6.678;2022-08-26T15:55:07;23.90;99.90
9881;DHT22;4979;51.014;6.678;2022-08-26T15:57:33;23.80;99.90
9881;DHT22;4979;51.014;6.678;2022-08-26T15:59:59;23.70;99.90
9881;DHT22;4979;51.014;6.678;2022-08-26T16:02:25;23.70;99.90
9881;DHT22;4979;51.014;6.678;2022-08-26T16:04:50;23.60;99.90
9881;DHT22;4979;51.014;6.678;2022-08-26T16:07:16;23.50;99.90
9881;DHT22;4979;51.014;6.678;2022-08-26T16:09:42;23.50;99.90
9881;DHT22;4979;51.014;6.678;2022-08-26T16:12:08;23.30;99.90
9881;DHT22;4979;51.014;6.678;2022-08-26T16:14:33;23.20;99.90
9881;DHT22;4979;51.014;6.678;2022-08-26T16:16:59;23.10;99.90
9881;DHT22;4979;51.014;6.678;2022-08-26T16:19:25;23.10;99.90
9881;DHT22;4979;51.014;6.678;2022-08-26T16:21:50;23.10;99.90
9881;DHT22;4979;51.014;6.678;2022-08-26T16:24:17;23.10;99.90
9881;DHT22;4979;51.014;6.678;2022-08-26T16:26:46;23.10;99.90
9881;DHT22;4979;51.014;6.678;2022-08-26T16:29:13;23.00;99.90
9881;DHT22;4979;51.014;6.678;2022-08-26T16:31:40;23.00;99.90
9881;DHT22;4979;51.014;6.678;2022-08-26T16:34:06;23.00;99.90
9881;DHT22;4979;51.014;6.678;2022-08-26T16:36:33;23.00;99.90
9881;DHT22;4979;51.014;6.678;2022-08-26T16:38:59;23.00;99.90
9881;DHT22;4979;51.014;6.678;2022-08-26T16:41:28;22.90;99.90
9881;DHT22;4979;51.014;6.678;2022-08-26T16:43:54;22.80;99.90
9881;DHT22;4979;51.014;6.678;2022-08-26T16:46:21;22.80;99.90
9881;DHT22;4979;51.014;6.678;2022-08-26T16:48:50;22.70;99.90
9881;DHT22;4979;51.014;6.678;2022-08-26T16:51:18;22.80;99.90
9881;DHT22;4979;51.014;6.678;2022-08-26T16:53:45;22.70;99.90
9881;DHT22;4979;51.014;6.678;2022-08-26T16:56:12;22.60;99.90
9881;DHT22;4979;51.014;6.678;2022-08-26T16:58:38;22.70;99.90
9881;DHT22;4979;51.014;6.678;2022-08-26T17:01:04;22.70;99.90
9881;DHT22;4979;51.014;6.678;2022-08-26T17:03:29;22.60;99.90
9881;DHT22;4979;51.014;6.678;2022-08-26T17:05:55;22.50;99.90
9881;DHT22;4979;51.014;6.678;2022-08-26T17:08:21;22.50;99.90
9881;DHT22;4979;51.014;6.678;2022-08-26T17:10:46;22.50;99.90
9881;DHT22;4979;51.014;6.678;2022-08-26T17:13:12;22.50;99.90
9881;DHT22;4979;51.014;6.678;2022-08-26T17:15:37;22.60;99.90
9881;DHT22;4979;51.014;6.678;2022-08-26T17:18:03;22.60;99.90
9881;DHT22;4979;51.014;6.678;2022-08-26T17:20:29;22.50;99.90
9881;DHT22;4979;51.014;6.678;2022-08-26T17:22:55;22.40;99.90
9881;DHT22;4979;51.014;6.678;2022-08-26T17:25:24;22.40;99.90